Time;durP1;ratioP1;P1;durP2;ratioP2;P2;SDS_P1;SDS_P2;PMS_P1;PMS_P2;Temp;Humidity;BMP_temperature;BMP_pressure;BME280_temperature;BME280_humidity;BME280_pressure;Samples;Min_cycle;Max_cycle;Signal;HPM_P1;HPM_P2
2022/06/12 00:01:28;;;;;;;15.32;2.67;;;;;;;14.58;99.24;102255.53;5030846;28;20078;-61
2022/06/12 00:03:54;;;;;;;11.95;2.72;;;;;;;14.53;99.77;102247.72;5030106;28;20021;-62
2022/06/12 00:06:20;;;;;;;11.77;2.83;;;;;;;14.50;100.00;102245.19;5030455;28;20025;-62
2022/06/12 00:08:46;;;;;;;11.40;3.00;;;;;;;14.49;100.00;102239.88;5030726;28;20022;-62
2022/06/12 00:11:15;;;;;;;12.70;2.85;;;;;;;14.44;100.00;102234.75;5031580;28;20044;-62
2022/06/12 00:13:48;;;;;;;16.48;2.92;;;;;;;14.40;100.00;102246.47;5031481;28;20025;-62
2022/06/12 00:16:15;;;;;;;12.32;2.78;;;;;;;14.36;100.00;102245.72;5030676;28;20029;-61
2022/06/12 00:18:41;;;;;;;15.10;2.67;;;;;;;14.34;100.00;102228.91;5031432;28;20112;-61
2022/06/12 00:21:11;;;;;;;15.85;2.65;;;;;;;14.29;100.00;102230.88;5030039;28;20072;-61
2022/06/12 00:23:44;;;;;;;10.13;2.45;;;;;;;14.22;100.00;102230.25;5031247;28;20064;-61
2022/06/12 00:26:13;;;;;;;12.68;2.88;;;;;;;14.19;100.00;102230.34;5029790;28;20037;-61
2022/06/12 00:28:39;;;;;;;17.70;2.90;;;;;;;14.17;100.00;102226.00;5031046;28;20045;-61
2022/06/12 00:31:04;;;;;;;16.25;3.35;;;;;;;14.14;100.00;102234.13;5031284;28;20104;-61
2022/06/12 00:33:30;;;;;;;14.27;3.17;;;;;;;14.11;100.00;102234.25;5029312;28;20030;-63
2022/06/12 00:35:55;;;;;;;16.73;3.20;;;;;;;14.06;100.00;102237.94;5030780;28;20098;-61
2022/06/12 00:38:21;;;;;;;19.33;3.80;;;;;;;14.02;100.00;102236.31;5029503;28;20061;-62
2022/06/12 00:40:46;;;;;;;15.13;3.05;;;;;;;13.99;100.00;102231.09;5029834;28;20048;-61
2022/06/12 00:43:13;;;;;;;19.23;3.40;;;;;;;13.97;100.00;102232.94;5030107;28;20037;-61
2022/06/12 00:45:42;;;;;;;17.95;3.80;;;;;;;13.99;100.00;102227.56;5029901;28;20503;-60
2022/06/12 00:48:19;;;;;;;17.50;3.70;;;;;;;13.97;100.00;102232.09;5028782;28;20020;-62
2022/06/12 00:50:49;;;;;;;18.08;3.60;;;;;;;13.96;100.00;102227.69;5033037;28;20017;-62
2022/06/12 00:53:20;;;;;;;14.18;3.10;;;;;;;13.97;100.00;102226.78;5033298;28;20439;-63
2022/06/12 00:55:55;;;;;;;15.30;3.77;;;;;;;13.93;100.00;102228.66;5034360;28;20025;-62
2022/06/12 00:58:24;;;;;;;19.08;3.50;;;;;;;13.89;100.00;102229.72;5032148;28;20541;-62
2022/06/12 01:00:51;;;;;;;17.42;3.85;;;;;;;13.90;100.00;102231.44;5032455;28;20033;-62
2022/06/12 01:03:18;;;;;;;18.75;3.45;;;;;;;13.88;100.00;102228.81;5031095;28;20107;-61
2022/06/12 01:08:29;;;;;;;17.95;3.70;;;;;;;13.84;100.00;102232.53;5033960;28;20495;-62
2022/06/12 01:11:00;;;;;;;18.52;3.53;;;;;;;13.85;100.00;102228.06;5033959;28;20489;-62
2022/06/12 01:13:32;;;;;;;21.20;3.58;;;;;;;13.84;100.00;102232.53;5033038;28;20049;-62
2022/06/12 01:16:04;;;;;;;16.85;3.78;;;;;;;13.84;100.00;102226.34;5034016;28;20033;-62
2022/06/12 01:18:37;;;;;;;17.67;4.00;;;;;;;13.85;100.00;102220.97;5033591;28;20034;-62
2022/06/12 01:21:29;;;;;;;18.90;4.25;;;;;;;13.84;100.00;102229.88;5032305;28;20386;-62
2022/06/12 01:24:23;;;;;;;18.48;3.90;;;;;;;13.83;100.00;102228.13;5034138;28;20028;-62
2022/06/12 01:27:00;;;;;;;17.15;4.07;;;;;;;13.79;100.00;102229.16;5033359;28;20032;-62
2022/06/12 01:29:59;;;;;;;16.73;3.75;;;;;;;13.79;100.00;102223.00;5033892;28;20018;-62
2022/06/12 01:32:33;;;;;;;17.90;3.75;;;;;;;13.76;100.00;102230.16;5011525;28;20131;-62
2022/06/12 01:35:08;;;;;;;19.83;3.65;;;;;;;13.72;100.00;102225.88;5013976;28;20080;-62
2022/06/12 01:38:00;;;;;;;19.85;4.63;;;;;;;13.71;100.00;102225.94;5025431;28;20029;-61
2022/06/12 01:40:36;;;;;;;16.40;4.03;;;;;;;13.68;100.00;102218.91;5033475;28;20017;-62
2022/06/12 01:43:15;;;;;;;20.25;4.32;;;;;;;13.65;100.00;102224.34;5032277;28;20025;-62
2022/06/12 01:46:04;;;;;;;23.42;4.13;;;;;;;13.62;100.00;102232.44;5033515;28;20025;-61
2022/06/12 01:48:58;;;;;;;17.88;4.05;;;;;;;13.60;100.00;102228.94;5031835;28;20037;-62
2022/06/12 01:51:47;;;;;;;17.63;4.15;;;;;;;13.56;100.00;102228.19;5013489;28;20034;-62
2022/06/12 01:54:22;;;;;;;19.38;4.28;;;;;;;13.53;100.00;102238.94;5028943;28;20076;-62
2022/06/12 01:56:55;;;;;;;18.02;3.88;;;;;;;13.50;100.00;102230.19;5013259;28;20080;-63
2022/06/12 01:59:38;;;;;;;21.45;4.70;;;;;;;13.50;100.00;102235.53;5032296;28;20033;-63
2022/06/12 02:02:20;;;;;;;23.23;4.55;;;;;;;13.46;100.00;102231.25;5032138;28;20393;-63
2022/06/12 02:04:58;;;;;;;21.17;4.35;;;;;;;13.46;100.00;102237.41;5033120;28;20043;-61
2022/06/12 02:07:38;;;;;;;21.08;4.43;;;;;;;13.44;100.00;102225.97;5031744;28;20026;-62
2022/06/12 02:10:27;;;;;;;20.63;4.18;;;;;;;13.41;100.00;102237.59;5031248;28;20045;-62
2022/06/12 02:13:11;;;;;;;23.25;5.15;;;;;;;13.39;100.00;102230.59;5033050;28;20108;-62
2022/06/12 02:15:39;;;;;;;23.70;4.63;;;;;;;13.37;100.00;102219.97;5032963;28;20021;-62
2022/06/12 02:18:10;;;;;;;21.80;4.22;;;;;;;13.36;100.00;102228.88;5032582;28;20108;-62
2022/06/12 02:20:41;;;;;;;18.73;4.97;;;;;;;13.32;100.00;102219.22;5031324;28;20022;-61
2022/06/12 02:23:14;;;;;;;25.23;4.90;;;;;;;13.32;100.00;102229.00;5031723;28;20048;-63
2022/06/12 02:25:44;;;;;;;21.02;5.05;;;;;;;13.32;100.00;102218.38;5031617;28;20264;-63
2022/06/12 02:28:15;;;;;;;21.58;4.63;;;;;;;13.31;100.00;102220.16;5031459;28;20025;-63
2022/06/12 02:30:45;;;;;;;25.20;5.30;;;;;;;13.30;100.00;102223.75;5032511;28;20033;-63
2022/06/12 02:33:25;;;;;;;18.98;4.72;;;;;;;13.30;100.00;102214.88;5032832;28;20390;-62
2022/06/12 02:35:55;;;;;;;24.50;5.18;;;;;;;13.31;100.00;102233.44;5032594;28;20025;-62
2022/06/12 02:38:25;;;;;;;18.58;4.72;;;;;;;13.31;100.00;102224.59;5032494;28;20103;-62
2022/06/12 02:41:00;;;;;;;22.05;4.97;;;;;;;13.28;100.00;102228.25;5032274;28;20087;-62
2022/06/12 02:43:30;;;;;;;22.02;4.93;;;;;;;13.22;100.00;102226.69;5031032;28;20033;-62
2022/06/12 02:46:23;;;;;;;18.55;5.35;;;;;;;13.22;100.00;102228.44;5031044;28;20028;-63
2022/06/12 02:48:48;;;;;;;20.95;5.00;;;;;;;13.18;100.00;102233.00;5026635;28;20477;-62
2022/06/12 02:51:52;;;;;;;21.45;5.10;;;;;;;13.20;100.00;102225.00;5030221;28;20057;-62
2022/06/12 02:54:26;;;;;;;26.55;5.32;;;;;;;13.16;100.00;102226.88;4995111;28;20053;-63
2022/06/12 02:57:01;;;;;;;20.67;4.80;;;;;;;13.17;100.00;102219.75;5011497;28;20029;-62
2022/06/12 02:59:38;;;;;;;28.17;5.93;;;;;;;13.15;100.00;102216.28;5011089;28;20030;-63
2022/06/12 03:02:52;;;;;;;25.88;5.32;;;;;;;13.15;100.00;102217.16;5031183;28;20029;-61
2022/06/12 03:05:22;;;;;;;23.10;4.75;;;;;;;13.15;100.00;102218.97;4954996;28;20084;-63
2022/06/12 03:08:16;;;;;;;25.42;5.35;;;;;;;13.13;100.00;102213.66;5022436;28;20038;-62
2022/06/12 03:10:53;;;;;;;17.00;5.38;;;;;;;13.15;100.00;102208.31;5017135;28;20045;-62
2022/06/12 03:13:19;;;;;;;15.98;5.25;;;;;;;13.18;100.00;102219.69;5031370;28;20034;-62
2022/06/12 03:15:54;;;;;;;22.08;5.00;;;;;;;13.23;100.00;102216.91;5032223;28;20556;-61
2022/06/12 03:18:28;;;;;;;19.02;4.95;;;;;;;13.26;100.00;102217.66;5030719;28;20022;-62
2022/06/12 03:21:08;;;;;;;21.25;5.53;;;;;;;13.26;100.00;102212.34;5030252;28;20075;-63
2022/06/12 03:23:57;;;;;;;20.73;4.78;;;;;;;13.23;100.00;102223.06;5030227;28;20425;-62
2022/06/12 03:26:42;;;;;;;19.02;5.32;;;;;;;13.21;100.00;102221.38;5030763;28;20083;-62
2022/06/12 03:29:29;;;;;;;23.00;5.30;;;;;;;13.22;100.00;102218.69;5031943;28;20025;-62
2022/06/12 03:32:06;;;;;;;28.88;5.57;;;;;;;13.21;100.00;102216.94;5031158;28;20036;-63
2022/06/12 03:34:46;;;;;;;27.23;5.65;;;;;;;13.21;100.00;102221.38;5031429;28;20021;-61
2022/06/12 03:37:43;;;;;;;21.48;5.28;;;;;;;13.19;100.00;102221.44;5030731;28;20029;-62
2022/06/12 03:40:18;;;;;;;17.48;4.88;;;;;;;13.22;100.00;102229.34;5031702;28;20029;-62
2022/06/12 03:43:10;;;;;;;20.10;4.53;;;;;;;13.24;100.00;102234.59;5031286;28;20032;-62
2022/06/12 03:45:48;;;;;;;21.30;4.73;;;;;;;13.23;100.00;102230.19;5029800;28;20030;-62
2022/06/12 03:48:26;;;;;;;22.60;5.07;;;;;;;13.23;100.00;102224.88;5032230;28;20052;-62
2022/06/12 03:51:25;;;;;;;27.52;5.35;;;;;;;13.29;100.00;102219.34;5030080;28;20500;-62
2022/06/12 03:54:04;;;;;;;20.60;4.57;;;;;;;13.36;100.00;102215.56;5030770;28;20033;-62
2022/06/12 03:59:48;;;;;;;18.80;4.45;;;;;;;13.46;100.00;102226.78;5031481;28;20040;-61
2022/06/12 04:02:18;;;;;;;23.10;4.60;;;;;;;13.51;100.00;102226.63;5029810;28;20033;-62
2022/06/12 04:04:46;;;;;;;18.17;4.90;;;;;;;13.55;100.00;102228.25;5031334;28;20112;-61
2022/06/12 04:07:14;;;;;;;18.67;4.35;;;;;;;13.58;100.00;102237.00;5031192;28;20037;-62
2022/06/12 04:09:44;;;;;;;20.40;5.53;;;;;;;13.62;100.00;102236.88;5031345;28;20049;-61
2022/06/12 04:12:16;;;;;;;18.63;4.78;;;;;;;13.66;100.00;102230.50;5031364;28;20076;-62
2022/06/12 04:14:50;;;;;;;19.30;4.97;;;;;;;13.70;100.00;102234.84;5031050;28;20025;-63
2022/06/12 04:17:15;;;;;;;22.52;4.63;;;;;;;13.74;100.00;102234.66;5030251;28;20026;-62
2022/06/12 04:22:47;;;;;;;13.48;4.28;;;;;;;13.81;100.00;102230.00;5018979;28;20045;-62
2022/06/12 04:25:40;;;;;;;16.33;4.20;;;;;;;13.86;100.00;102240.47;5032467;28;20026;-62
2022/06/12 04:28:23;;;;;;;14.48;4.55;;;;;;;13.92;100.00;102238.44;5034906;28;20079;-62
2022/06/12 04:30:49;;;;;;;21.40;4.97;;;;;;;13.96;100.00;102235.69;5035253;28;20048;-63
2022/06/12 04:33:39;;;;;;;16.75;4.25;;;;;;;14.00;100.00;102234.63;5034780;28;20111;-62
2022/06/12 04:36:05;;;;;;;17.15;4.40;;;;;;;14.07;100.00;102233.50;5033840;28;20025;-63
2022/06/12 04:38:33;;;;;;;16.00;4.35;;;;;;;14.13;100.00;102235.94;5034457;28;20056;-62
2022/06/12 04:40:58;;;;;;;21.10;4.75;;;;;;;14.17;100.00;102242.88;5034774;28;20465;-61
2022/06/12 04:43:23;;;;;;;18.40;5.15;;;;;;;14.24;100.00;102243.50;5034446;28;20086;-61
2022/06/12 04:45:50;;;;;;;16.13;4.30;;;;;;;14.31;100.00;102253.00;5033562;28;20053;-61
2022/06/12 04:48:22;;;;;;;14.98;4.45;;;;;;;14.38;100.00;102249.16;5034593;28;20049;-63
2022/06/12 04:50:47;;;;;;;16.30;4.35;;;;;;;14.48;100.00;102255.03;5034593;28;20036;-62
2022/06/12 04:53:13;;;;;;;17.15;3.60;;;;;;;14.54;100.00;102256.56;5033308;28;20037;-62
2022/06/12 04:55:38;;;;;;;16.48;4.05;;;;;;;14.61;100.00;102259.88;5034338;28;20048;-63
2022/06/12 04:58:05;;;;;;;16.77;3.72;;;;;;;14.65;100.00;102254.38;5015994;28;20385;-62
2022/06/12 05:00:35;;;;;;;13.10;3.83;;;;;;;14.72;100.00;102250.56;5032725;28;20041;-62
2022/06/12 05:03:02;;;;;;;13.90;3.60;;;;;;;14.81;100.00;102252.00;5034246;28;20025;-62
2022/06/12 05:05:28;;;;;;;12.30;3.22;;;;;;;14.88;100.00;102245.47;5032496;28;20033;-62
2022/06/12 05:07:56;;;;;;;16.50;3.92;;;;;;;14.98;100.00;102253.09;5034267;28;20104;-62
2022/06/12 05:10:22;;;;;;;12.25;3.33;;;;;;;15.02;100.00;102244.03;5034096;28;20049;-62
2022/06/12 05:12:47;;;;;;;16.05;3.50;;;;;;;15.07;100.00;102253.56;5034319;28;20036;-62
2022/06/12 05:15:14;;;;;;;15.73;3.45;;;;;;;15.14;100.00;102248.88;5032668;28;20451;-62
2022/06/12 05:17:42;;;;;;;14.32;3.40;;;;;;;15.24;100.00;102254.69;5034082;28;20026;-62
2022/06/12 05:20:15;;;;;;;13.15;3.20;;;;;;;15.36;100.00;102256.00;5032566;28;20028;-62
2022/06/12 05:22:41;;;;;;;12.00;3.10;;;;;;;15.44;100.00;102258.34;5033806;28;20025;-62
2022/06/12 05:25:06;;;;;;;10.45;2.80;;;;;;;15.54;100.00;102249.00;5033904;28;20539;-61
2022/06/12 05:27:32;;;;;;;11.77;3.08;;;;;;;15.58;100.00;102261.25;5032854;28;20033;-62
2022/06/12 05:29:58;;;;;;;9.63;2.63;;;;;;;15.61;100.00;102254.91;5033634;28;20567;-62
2022/06/12 05:32:23;;;;;;;15.48;3.33;;;;;;;15.61;100.00;102257.59;5032961;28;20033;-62
2022/06/12 05:34:49;;;;;;;9.50;3.15;;;;;;;15.66;100.00;102256.44;5016142;28;20034;-62
2022/06/12 05:37:15;;;;;;;9.63;2.63;;;;;;;15.75;99.58;102260.50;5031837;28;20405;-63
2022/06/12 05:39:40;;;;;;;9.73;2.67;;;;;;;15.76;98.36;102264.06;5000677;28;20030;-62
2022/06/12 05:42:07;;;;;;;10.05;2.67;;;;;;;15.77;97.16;102263.13;5033305;28;20649;-62
2022/06/12 05:44:33;;;;;;;12.90;3.08;;;;;;;15.87;96.61;102257.34;5031533;28;20045;-67
2022/06/12 05:46:58;;;;;;;10.18;2.88;;;;;;;15.92;95.39;102265.16;5032687;28;20021;-69
2022/06/12 05:49:24;;;;;;;9.80;2.72;;;;;;;16.03;93.42;102265.53;5034127;28;20040;-69
2022/06/12 05:51:50;;;;;;;8.38;2.65;;;;;;;16.10;94.38;102271.47;5032015;28;20472;-68
2022/06/12 05:54:15;;;;;;;10.02;2.75;;;;;;;16.14;94.68;102281.09;5032482;28;20108;-68
2022/06/12 05:56:41;;;;;;;9.05;2.70;;;;;;;16.22;91.98;102273.56;5028618;28;20082;-69
2022/06/12 05:59:06;;;;;;;9.38;2.75;;;;;;;16.21;92.17;102285.22;5033219;28;20028;-69
2022/06/12 06:01:33;;;;;;;8.07;2.70;;;;;;;16.24;90.50;102267.28;5033074;28;20018;-69
2022/06/12 06:03:58;;;;;;;9.13;2.58;;;;;;;16.20;92.11;102275.47;5031502;28;20022;-69
2022/06/12 06:06:29;;;;;;;9.40;2.97;;;;;;;16.24;91.74;102278.00;5032055;28;20160;-69
2022/06/12 06:08:55;;;;;;;8.87;2.67;;;;;;;16.27;91.39;102280.53;5023084;28;20492;-68
2022/06/12 06:11:21;;;;;;;8.60;3.05;;;;;;;16.28;91.22;102277.78;5033218;28;20041;-69
2022/06/12 06:13:47;;;;;;;10.50;2.83;;;;;;;16.30;90.69;102288.41;5031052;28;20477;-69
2022/06/12 06:16:13;;;;;;;9.80;2.47;;;;;;;16.35;90.57;102289.06;5026394;28;20409;-68
2022/06/12 06:18:40;;;;;;;12.10;3.17;;;;;;;16.43;91.32;102283.34;5030180;28;20025;-70
2022/06/12 06:21:08;;;;;;;8.15;2.70;;;;;;;16.42;91.04;102278.94;5032692;28;20021;-69
2022/06/12 06:23:35;;;;;;;8.02;2.83;;;;;;;16.43;90.75;102289.56;5032552;28;20033;-69
2022/06/12 06:26:01;;;;;;;6.15;2.40;;;;;;;16.51;89.91;102278.53;5029638;28;20037;-70
2022/06/12 06:28:27;;;;;;;10.93;2.72;;;;;;;16.53;90.12;102290.00;5029182;28;20040;-69
2022/06/12 06:30:52;;;;;;;12.05;2.75;;;;;;;16.53;89.93;102281.97;5040484;28;20484;-70
2022/06/12 06:33:18;;;;;;;11.77;2.70;;;;;;;16.51;90.12;102300.78;5027062;28;20079;-69
2022/06/12 06:35:43;;;;;;;7.93;2.50;;;;;;;16.50;89.77;102301.72;5026871;28;20037;-69
2022/06/12 06:38:09;;;;;;;11.73;2.83;;;;;;;16.48;89.26;102303.59;5009950;28;20029;-69
2022/06/12 06:40:35;;;;;;;10.95;2.72;;;;;;;16.49;90.17;102299.97;5031119;28;20053;-69
2022/06/12 06:43:00;;;;;;;13.00;2.92;;;;;;;16.55;90.35;102301.50;5030713;28;20287;-68
2022/06/12 06:48:10;;;;;;;11.27;2.42;;;;;;;16.63;89.05;102317.19;5030947;28;20397;-69
2022/06/12 06:50:37;;;;;;;8.35;2.58;;;;;;;16.79;88.95;102320.00;5032102;28;20036;-69
2022/06/12 06:53:03;;;;;;;10.90;2.67;;;;;;;16.87;88.79;102324.03;5032062;28;20037;-69
2022/06/12 06:55:30;;;;;;;11.50;3.03;;;;;;;16.91;87.96;102326.63;5029744;28;20108;-69
2022/06/12 06:57:57;;;;;;;9.35;2.40;;;;;;;16.92;88.41;102328.34;5022485;28;20022;-69
2022/06/12 07:00:30;;;;;;;9.15;2.78;;;;;;;16.80;89.61;102319.06;5029396;28;20507;-70
2022/06/12 07:02:56;;;;;;;8.15;2.78;;;;;;;16.96;88.66;102320.09;5030914;28;20052;-70
2022/06/12 07:05:22;;;;;;;8.27;2.80;;;;;;;16.96;88.10;102330.81;5030201;28;20104;-70
2022/06/12 07:07:48;;;;;;;7.57;2.85;;;;;;;17.07;88.22;102337.44;5031546;28;20038;-69
2022/06/12 07:10:18;;;;;;;13.75;3.03;;;;;;;17.20;87.74;102330.56;5030577;28;20060;-69
2022/06/12 07:12:45;;;;;;;9.02;2.67;;;;;;;17.28;87.35;102323.00;5027094;28;20111;-69
2022/06/12 07:15:12;;;;;;;7.90;2.58;;;;;;;17.39;86.59;102318.94;5029805;28;20027;-69
2022/06/12 07:17:38;;;;;;;10.52;2.97;;;;;;;17.44;85.86;102315.09;5031206;28;20026;-70
2022/06/12 07:20:04;;;;;;;7.68;2.47;;;;;;;17.40;84.41;102320.66;5031752;28;20030;-69
2022/06/12 07:22:29;;;;;;;11.18;2.80;;;;;;;17.32;84.98;102315.69;5035796;28;20087;-69
2022/06/12 07:24:54;;;;;;;11.35;2.72;;;;;;;17.38;84.15;102318.06;5030718;28;20492;-69
2022/06/12 07:27:20;;;;;;;11.25;2.90;;;;;;;17.54;83.31;102312.78;5030294;28;20045;-69
2022/06/12 07:29:46;;;;;;;9.10;2.95;;;;;;;17.65;81.55;102318.47;5029264;28;20099;-69
2022/06/12 07:32:12;;;;;;;11.80;2.45;;;;;;;17.75;81.53;102316.19;5028957;28;20083;-69
2022/06/12 07:34:37;;;;;;;11.27;2.97;;;;;;;17.81;81.76;102315.88;5015205;28;20037;-70
2022/06/12 07:37:05;;;;;;;10.43;2.70;;;;;;;17.92;81.28;102312.63;5030764;28;20036;-70
2022/06/12 07:39:31;;;;;;;9.02;2.70;;;;;;;18.08;78.50;102320.78;5028819;28;20045;-69
2022/06/12 07:41:58;;;;;;;10.88;2.80;;;;;;;18.22;77.89;102309.28;5028655;28;20029;-70
2022/06/12 07:44:26;;;;;;;6.60;2.47;;;;;;;18.30;77.61;102316.91;5030052;28;20040;-69
2022/06/12 07:46:54;;;;;;;8.00;2.47;;;;;;;18.36;77.96;102319.25;5015573;28;20091;-69
2022/06/12 07:49:20;;;;;;;10.38;2.53;;;;;;;18.47;78.48;102314.19;5022377;28;20041;-69
2022/06/12 07:51:46;;;;;;;11.93;3.78;;;;;;;18.63;77.85;102322.28;5024003;28;20401;-69
2022/06/12 07:54:12;;;;;;;10.68;2.80;;;;;;;18.69;76.62;102317.50;5015743;28;20069;-69
2022/06/12 07:56:38;;;;;;;11.35;2.90;;;;;;;18.68;77.46;102319.31;5016151;28;20434;-68
2022/06/12 07:59:07;;;;;;;12.98;2.90;;;;;;;18.54;78.03;102308.50;5031691;28;20497;-70
2022/06/12 08:01:33;;;;;;;9.52;2.97;;;;;;;18.65;77.49;102323.03;5035099;28;20030;-70
2022/06/12 08:03:59;;;;;;;9.32;2.60;;;;;;;18.68;77.75;102327.38;5017158;28;20103;-70
2022/06/12 08:06:25;;;;;;;12.73;3.65;;;;;;;18.78;76.88;102322.34;5024611;28;20068;-71
2022/06/12 08:08:51;;;;;;;12.02;2.80;;;;;;;18.88;74.81;102318.19;5036066;28;20100;-70
2022/06/12 08:11:17;;;;;;;9.13;2.40;;;;;;;19.06;75.43;102313.63;5033964;28;20120;-69
2022/06/12 08:13:42;;;;;;;8.07;2.67;;;;;;;19.22;74.01;102328.84;5034895;28;20108;-69
2022/06/12 08:16:08;;;;;;;9.73;2.40;;;;;;;19.22;73.97;102324.38;5034522;28;20104;-69
2022/06/12 08:18:34;;;;;;;9.88;2.65;;;;;;;19.19;73.64;102321.00;5034735;28;20034;-69
2022/06/12 08:21:09;;;;;;;11.95;2.60;;;;;;;19.15;73.47;102325.66;5034827;28;20459;-69
2022/06/12 08:23:56;;;;;;;8.57;2.70;;;;;;;19.25;73.76;102328.69;5034133;28;20029;-69
2022/06/12 08:26:33;;;;;;;11.00;2.88;;;;;;;19.30;73.38;102332.81;5034319;28;20067;-69
2022/06/12 08:29:03;;;;;;;9.25;2.90;;;;;;;19.30;72.94;102332.81;5028236;28;20541;-69
2022/06/12 08:32:05;;;;;;;11.07;2.78;;;;;;;19.13;73.43;102331.13;5028441;28;20488;-68
2022/06/12 08:34:35;;;;;;;13.15;3.28;;;;;;;19.25;73.92;102332.22;5032901;28;20034;-68
2022/06/12 08:37:03;;;;;;;8.63;2.70;;;;;;;19.92;71.30;102333.72;5034256;28;20449;-69
2022/06/12 08:39:29;;;;;;;12.65;3.10;;;;;;;20.74;68.26;102332.22;5033903;28;21516;-68
2022/06/12 08:42:11;;;;;;;8.80;2.63;;;;;;;21.31;66.56;102335.72;5034293;28;20044;-70
2022/06/12 08:44:53;;;;;;;11.18;3.00;;;;;;;22.26;61.00;102322.94;5027503;28;20112;-69
2022/06/12 08:47:34;;;;;;;8.98;2.90;;;;;;;22.44;60.36;102325.28;5028984;28;20030;-70
2022/06/12 08:50:20;;;;;;;10.27;3.08;;;;;;;23.72;52.60;102328.47;5031228;28;20021;-69
2022/06/12 08:53:23;;;;;;;8.25;2.97;;;;;;;24.53;45.24;102328.47;5032781;28;20025;-69
2022/06/12 08:56:06;;;;;;;9.05;2.60;;;;;;;25.16;40.50;102315.16;5032929;28;20068;-69
2022/06/12 08:58:59;;;;;;;10.50;2.40;;;;;;;25.25;40.55;102315.38;5026919;28;20476;-68
2022/06/12 09:01:24;;;;;;;7.80;2.47;;;;;;;24.99;41.94;102315.72;5028982;28;20400;-69
2022/06/12 09:03:53;;;;;;;8.38;2.65;;;;;;;25.97;39.20;102298.38;5031756;28;20025;-69
2022/06/12 09:06:46;;;;;;;7.80;2.53;;;;;;;25.47;38.60;102307.16;5033684;28;20038;-69
2022/06/12 09:09:14;;;;;;;7.88;2.70;;;;;;;24.94;40.00;102296.28;5032068;28;20329;-68
2022/06/12 09:12:01;;;;;;;7.55;2.30;;;;;;;24.63;39.03;102294.22;5032895;28;20029;-69
2022/06/12 09:14:58;;;;;;;5.90;2.20;;;;;;;23.61;41.32;102313.09;5033560;28;20025;-68
2022/06/12 09:17:48;;;;;;;7.30;2.42;;;;;;;23.75;43.59;102312.00;5016293;28;20025;-69
2022/06/12 09:20:32;;;;;;;6.47;2.20;;;;;;;24.36;41.13;102322.56;5024902;28;20025;-68
2022/06/12 09:23:13;;;;;;;7.50;2.30;;;;;;;25.43;39.00;102313.00;5031370;28;20033;-69
2022/06/12 09:25:43;;;;;;;8.95;2.40;;;;;;;25.43;39.26;102315.72;5020426;28;20381;-69
2022/06/12 09:28:33;;;;;;;7.05;2.10;;;;;;;25.52;38.38;102318.50;5032168;28;20461;-69
2022/06/12 09:30:58;;;;;;;6.82;2.20;;;;;;;24.85;36.81;102317.72;5020992;28;20086;-69
2022/06/12 09:33:24;;;;;;;6.17;2.13;;;;;;;24.50;36.54;102310.63;5022910;28;20033;-68
2022/06/12 09:36:04;;;;;;;7.90;2.25;;;;;;;24.90;37.32;102311.06;5025277;28;20292;-69
2022/06/12 09:38:51;;;;;;;8.38;2.40;;;;;;;25.29;37.90;102316.84;5022001;28;20038;-67
2022/06/12 09:41:22;;;;;;;6.28;2.40;;;;;;;25.42;40.32;102313.97;5046583;28;20033;-68
2022/06/12 09:43:53;;;;;;;7.57;2.40;;;;;;;25.12;38.57;102321.00;5020081;28;20033;-69
2022/06/12 09:46:36;;;;;;;6.68;2.30;;;;;;;25.28;38.96;102318.72;5028450;28;20017;-69
2022/06/12 09:49:28;;;;;;;8.95;2.40;;;;;;;25.33;40.92;102321.00;5029892;28;20026;-68
2022/06/12 09:52:02;;;;;;;8.20;2.65;;;;;;;25.45;37.90;102311.88;5031253;28;20022;-68
2022/06/12 09:54:37;;;;;;;10.38;2.50;;;;;;;25.73;37.84;102314.94;5031172;28;20087;-68
2022/06/12 09:57:20;;;;;;;8.10;2.33;;;;;;;25.53;37.67;102324.78;5029811;28;20399;-68
2022/06/12 09:59:54;;;;;;;6.82;2.40;;;;;;;25.32;37.79;102319.28;5031521;28;20033;-68
2022/06/12 10:02:43;;;;;;;11.88;2.30;;;;;;;24.68;37.91;102323.66;5033026;28;20104;-68
2022/06/12 10:05:38;;;;;;;8.75;2.45;;;;;;;24.79;36.56;102330.91;5033154;28;20029;-68
2022/06/12 10:08:14;;;;;;;7.47;2.35;;;;;;;24.99;37.75;102315.72;5024477;28;20029;-68
2022/06/12 10:10:47;;;;;;;6.90;2.22;;;;;;;25.46;33.25;102338.00;5023957;28;20136;-69
2022/06/12 10:13:24;;;;;;;7.47;2.40;;;;;;;25.45;35.03;102336.28;5025081;28;20049;-67
2022/06/12 10:15:55;;;;;;;4.53;2.08;;;;;;;25.75;33.04;102322.94;5026937;28;20025;-66
2022/06/12 10:18:27;;;;;;;8.73;2.40;;;;;;;25.33;34.23;102335.44;5031719;28;20037;-66
2022/06/12 10:21:00;;;;;;;7.72;2.40;;;;;;;25.28;34.76;102325.97;5025626;28;20056;-67
2022/06/12 10:23:26;;;;;;;8.13;2.28;;;;;;;24.98;36.09;102332.97;5031510;28;20485;-68
2022/06/12 10:25:56;;;;;;;6.90;2.00;;;;;;;25.12;37.34;102337.25;5026539;28;20034;-67
2022/06/12 10:28:33;;;;;;;6.82;2.58;;;;;;;25.60;35.46;102331.41;5027683;28;20064;-67
2022/06/12 10:31:01;;;;;;;5.85;2.40;;;;;;;25.57;37.33;102337.06;5045229;28;20431;-69
2022/06/12 10:33:47;;;;;;;6.20;2.03;;;;;;;25.00;35.54;102331.84;5020814;28;20030;-68
2022/06/12 10:36:26;;;;;;;6.68;2.15;;;;;;;24.98;34.90;102332.97;5031211;28;20032;-69
2022/06/12 10:39:04;;;;;;;5.57;2.25;;;;;;;24.98;34.56;102324.84;5022184;28;20084;-68
2022/06/12 10:41:30;;;;;;;7.80;2.08;;;;;;;24.57;34.34;102321.81;5027076;28;20030;-69
2022/06/12 10:44:04;;;;;;;5.35;1.98;;;;;;;24.42;36.50;102323.06;5058674;28;20763;-68
2022/06/12 10:46:32;;;;;;;8.80;2.17;;;;;;;24.44;35.37;102316.53;5046816;28;20044;-67
2022/06/12 10:49:18;;;;;;;8.23;2.20;;;;;;;23.65;36.73;102317.25;5052372;28;20052;-67
2022/06/12 10:51:45;;;;;;;6.72;2.30;;;;;;;24.07;38.10;102314.06;5063618;28;20472;-68
2022/06/12 10:54:21;;;;;;;4.82;2.13;;;;;;;24.77;36.99;102306.66;5060738;28;20023;-68
2022/06/12 10:56:49;;;;;;;7.13;1.95;;;;;;;24.29;36.90;102318.63;5055625;28;20040;-68
2022/06/12 10:59:27;;;;;;;5.63;2.30;;;;;;;24.43;37.73;102319.38;5056657;28;20039;-69
2022/06/12 11:01:57;;;;;;;7.25;2.28;;;;;;;23.98;37.62;102321.06;5053669;28;20090;-68
2022/06/12 11:04:47;;;;;;;9.13;2.60;;;;;;;23.64;38.65;102317.38;5052617;28;20045;-69
2022/06/12 11:07:26;;;;;;;8.75;2.55;;;;;;;23.97;38.93;102310.38;5049803;28;20028;-69
2022/06/12 11:10:08;;;;;;;7.70;2.15;;;;;;;24.24;37.90;102309.16;5044261;28;20025;-69
2022/06/12 11:12:42;;;;;;;12.38;2.72;;;;;;;24.08;38.12;102321.22;5049975;28;20467;-68
2022/06/12 11:15:19;;;;;;;7.47;2.50;;;;;;;24.46;37.70;102321.81;5050074;28;20041;-68
2022/06/12 11:18:14;;;;;;;17.30;8.05;;;;;;;24.48;37.04;102311.72;5051172;28;20036;-68
2022/06/12 11:20:46;;;;;;;10.32;4.45;;;;;;;24.32;37.41;102315.69;5050931;28;20024;-68
2022/06/12 11:23:21;;;;;;;15.23;6.32;;;;;;;24.86;37.68;102324.03;5049332;28;20033;-68
2022/06/12 11:26:13;;;;;;;6.10;2.13;;;;;;;25.46;37.71;102302.75;5024451;28;20124;-68
2022/06/12 11:28:55;;;;;;;6.93;2.30;;;;;;;25.09;36.35;102313.09;5051374;28;20102;-68
2022/06/12 11:31:29;;;;;;;;;;;;;;;25.32;33.24;102311.16;5049616;28;20505;-68
2022/06/12 11:34:07;;;;;;;5.57;1.90;;;;;;;25.41;34.51;102320.38;5055822;28;19967;-68
2022/06/12 11:36:32;;;;;;;6.25;1.98;;;;;;;25.30;36.11;102322.13;5049918;28;20438;-68
2022/06/12 11:39:06;;;;;;;6.85;2.00;;;;;;;26.15;33.06;102312.19;5048934;28;20032;-68
2022/06/12 11:42:11;;;;;;;5.88;1.90;;;;;;;26.21;31.02;102307.22;5052617;28;20083;-67
2022/06/12 11:44:46;;;;;;;5.00;1.73;;;;;;;25.54;34.55;102318.38;5053251;28;20052;-69
2022/06/12 11:47:45;;;;;;;6.80;2.17;;;;;;;25.30;35.01;102308.56;5056504;28;20369;-69
2022/06/12 11:50:14;;;;;;;5.60;2.05;;;;;;;25.34;33.90;102304.59;5049182;28;20040;-68
2022/06/12 11:53:18;;;;;;;9.30;2.70;;;;;;;25.20;34.91;102304.91;5054635;28;20037;-68
2022/06/12 11:55:52;;;;;;;6.75;2.33;;;;;;;25.32;35.13;102303.91;5028936;28;20033;-69
2022/06/12 11:58:25;;;;;;;8.07;2.17;;;;;;;25.72;33.48;102299.63;5036024;28;20026;-69